Time;durP1;ratioP1;P1;durP2;ratioP2;P2;SDS_P1;SDS_P2;PMS_P1;PMS_P2;Temp;Humidity;BMP_temperature;BMP_pressure;BME280_temperature;BME280_humidity;BME280_pressure;Samples;Min_cycle;Max_cycle;Signal;HPM_P1;HPM_P2
2023/12/17 00:02:18;;;;;;;20.93;12.13;;;9.30;1.00;;;;;;5070301;28;20237;-78
2023/12/17 00:04:45;;;;;;;21.80;12.80;;;9.30;1.00;;;;;;5070345;28;20773;-79
2023/12/17 00:07:11;;;;;;;21.37;12.77;;;9.30;1.00;;;;;;5071469;28;20208;-78
2023/12/17 00:09:39;;;;;;;23.57;14.17;;;9.30;99.90;;;;;;5066468;28;20821;-77
2023/12/17 00:12:06;;;;;;;21.83;13.97;;;9.30;99.90;;;;;;5069284;28;20309;-78
2023/12/17 00:14:33;;;;;;;22.93;14.10;;;9.30;1.00;;;;;;5067904;28;20329;-79
2023/12/17 00:17:00;;;;;;;25.13;15.60;;;9.30;1.00;;;;;;5067957;28;20203;-79
2023/12/17 00:19:28;;;;;;;22.57;14.70;;;9.30;1.00;;;;;;5070413;28;20704;-79
2023/12/17 00:21:55;;;;;;;22.93;15.20;;;9.30;1.00;;;;;;5069956;28;20337;-78
2023/12/17 00:24:22;;;;;;;22.47;14.10;;;9.30;1.00;;;;;;5068981;28;20281;-79
2023/12/17 00:26:49;;;;;;;22.43;14.00;;;9.30;1.00;;;;;;5065147;28;20324;-79
2023/12/17 00:29:16;;;;;;;24.13;14.13;;;9.30;1.00;;;;;;5068803;28;20198;-78
2023/12/17 00:31:43;;;;;;;24.87;15.43;;;9.30;1.00;;;;;;5064011;28;20277;-78
2023/12/17 00:34:09;;;;;;;23.87;15.20;;;9.30;1.00;;;;;;5062733;28;20262;-79
2023/12/17 00:36:38;;;;;;;25.40;15.40;;;9.30;1.00;;;;;;5072201;28;20639;-78
2023/12/17 00:39:05;;;;;;;25.17;16.00;;;9.30;1.00;;;;;;5065994;28;20198;-79
2023/12/17 00:41:33;;;;;;;24.73;16.10;;;9.30;1.00;;;;;;5070041;28;20244;-80
2023/12/17 00:44:00;;;;;;;24.43;16.03;;;9.30;1.00;;;;;;5067108;28;20628;-79
2023/12/17 00:46:27;;;;;;;25.93;17.27;;;9.30;1.00;;;;;;5066297;28;20668;-78
2023/12/17 00:48:54;;;;;;;25.83;16.07;;;9.30;1.00;;;;;;5067119;28;20302;-79
2023/12/17 00:51:21;;;;;;;27.03;17.27;;;9.20;1.00;;;;;;5068985;28;20317;-77
2023/12/17 00:53:49;;;;;;;26.57;16.27;;;9.30;1.00;;;;;;5070013;28;20262;-78
2023/12/17 00:56:16;;;;;;;26.40;16.70;;;9.20;1.00;;;;;;5066947;28;20285;-78
2023/12/17 00:58:43;;;;;;;26.57;16.97;;;9.30;1.00;;;;;;5066435;28;20233;-79
2023/12/17 01:01:10;;;;;;;23.50;15.77;;;9.20;1.00;;;;;;5066423;28;20232;-79
2023/12/17 01:03:36;;;;;;;26.03;17.07;;;9.30;1.00;;;;;;5065682;28;20275;-79
2023/12/17 01:06:04;;;;;;;25.93;17.03;;;9.30;1.00;;;;;;5067588;28;20569;-78
2023/12/17 01:08:30;;;;;;;26.27;16.40;;;9.20;1.00;;;;;;5065554;28;20206;-80
2023/12/17 01:10:59;;;;;;;25.40;16.50;;;9.20;1.00;;;;;;5066392;28;20226;-78
2023/12/17 01:13:26;;;;;;;26.30;16.97;;;9.30;1.00;;;;;;5067471;28;20679;-78
2023/12/17 01:15:52;;;;;;;24.67;16.37;;;9.20;99.90;;;;;;5066706;28;20214;-78
2023/12/17 01:18:19;;;;;;;23.47;14.57;;;9.30;1.00;;;;;;5065903;28;20198;-78
2023/12/17 01:20:46;;;;;;;26.40;16.07;;;9.20;1.00;;;;;;5070092;28;20249;-80
2023/12/17 01:23:13;;;;;;;24.97;15.23;;;9.20;1.00;;;;;;5068956;28;20202;-79
2023/12/17 01:25:41;;;;;;;25.10;15.23;;;9.20;1.00;;;;;;5064189;28;20195;-79
2023/12/17 01:28:09;;;;;;;25.33;15.10;;;9.20;1.00;;;;;;5067967;28;20293;-80
2023/12/17 01:30:36;;;;;;;25.47;15.40;;;9.20;99.90;;;;;;5065017;28;20225;-78
2023/12/17 01:33:03;;;;;;;25.53;15.47;;;9.20;99.90;;;;;;5066299;28;20566;-79
2023/12/17 01:35:31;;;;;;;20.83;12.80;;;9.20;99.90;;;;;;5068085;28;20308;-79
2023/12/17 01:37:58;;;;;;;24.80;14.57;;;9.30;45.00;;;;;;5071388;28;20198;-79
2023/12/17 01:40:25;;;;;;;24.30;14.57;;;9.30;99.90;;;;;;5066986;28;20468;-78
2023/12/17 01:42:53;;;;;;;23.03;13.23;;;9.30;55.00;;;;;;5064399;28;20234;-78
2023/12/17 01:45:21;;;;;;;25.20;14.77;;;9.20;63.90;;;;;;5066167;28;20234;-78
2023/12/17 01:47:48;;;;;;;22.33;13.13;;;9.20;99.90;;;;;;5067321;28;20233;-78
2023/12/17 01:50:16;;;;;;;22.77;13.50;;;9.20;99.90;;;;;;5059712;28;20264;-79
2023/12/17 01:52:44;;;;;;;21.70;13.23;;;9.20;91.70;;;;;;5066532;28;20252;-78
2023/12/17 01:55:11;;;;;;;19.97;12.20;;;9.30;1.00;;;;;;5069306;28;20238;-79
2023/12/17 01:57:38;;;;;;;18.80;12.27;;;9.30;1.00;;;;;;5067603;28;20576;-80
2023/12/17 02:00:06;;;;;;;18.97;11.60;;;9.30;1.00;;;;;;5069141;28;20256;-78
2023/12/17 02:02:34;;;;;;;20.20;11.97;;;9.30;10.00;;;;;;5064221;28;20297;-78
2023/12/17 02:05:02;;;;;;;18.93;11.63;;;9.30;99.90;;;;;;5065796;28;20201;-78
2023/12/17 02:07:29;;;;;;;21.27;11.07;;;9.30;99.90;;;;;;5064168;28;20199;-80
2023/12/17 02:09:56;;;;;;;20.33;12.53;;;9.30;99.90;;;;;;5072546;28;20296;-79
2023/12/17 02:12:27;;;;;;;18.87;10.57;;;9.20;99.90;;;;;;5071323;28;20198;-79
2023/12/17 02:14:54;;;;;;;16.40;9.83;;;9.30;99.90;;;;;;5068589;28;20215;-79
2023/12/17 02:17:26;;;;;;;16.43;9.97;;;9.30;1.00;;;;;;5066865;28;20205;-79
2023/12/17 02:19:55;;;;;;;18.93;10.90;;;9.30;1.00;;;;;;5065424;28;20292;-79
2023/12/17 02:22:23;;;;;;;17.80;10.17;;;9.30;1.00;;;;;;5066604;28;20212;-79
2023/12/17 02:24:52;;;;;;;14.43;9.73;;;9.30;1.00;;;;;;5060377;28;20203;-79
2023/12/17 02:27:22;;;;;;;16.90;9.83;;;9.30;1.00;;;;;;5068334;28;20616;-78
2023/12/17 02:29:49;;;;;;;15.57;9.57;;;9.30;1.00;;;;;;5062578;28;20301;-78
2023/12/17 02:32:16;;;;;;;15.37;9.40;;;9.30;1.00;;;;;;5065707;28;20641;-78
2023/12/17 02:34:43;;;;;;;14.77;8.83;;;9.30;1.00;;;;;;5071002;28;20221;-79
2023/12/17 02:37:10;;;;;;;13.33;8.40;;;9.30;1.00;;;;;;5064690;28;20202;-78
2023/12/17 02:39:37;;;;;;;14.03;8.53;;;9.40;1.00;;;;;;5070096;28;20280;-78
2023/12/17 02:42:06;;;;;;;13.40;8.30;;;9.40;1.00;;;;;;5066936;28;20301;-79
2023/12/17 02:44:33;;;;;;;14.77;8.17;;;9.40;99.90;;;;;;5065371;28;20665;-79
2023/12/17 02:47:00;;;;;;;12.10;8.20;;;9.40;1.00;;;;;;5060045;28;20240;-79
2023/12/17 02:49:27;;;;;;;13.83;8.50;;;9.40;1.00;;;;;;5061220;28;20207;-79
2023/12/17 02:51:55;;;;;;;13.30;8.33;;;9.40;99.90;;;;;;5068250;28;20222;-78
2023/12/17 02:54:23;;;;;;;15.07;8.53;;;9.40;99.90;;;;;;5064064;28;20285;-79
2023/12/17 02:56:51;;;;;;;14.60;9.50;;;9.40;99.90;;;;;;5059337;28;20300;-79
2023/12/17 02:59:19;;;;;;;16.50;9.27;;;9.40;99.90;;;;;;5066559;28;20286;-79
2023/12/17 03:01:46;;;;;;;13.97;8.83;;;9.40;99.90;;;;;;5069913;28;20218;-78
2023/12/17 03:04:14;;;;;;;16.07;9.37;;;9.30;99.90;;;;;;5075559;28;20241;-79
2023/12/17 03:06:41;;;;;;;13.20;8.77;;;9.40;99.90;;;;;;5070607;28;21156;-78
2023/12/17 03:09:08;;;;;;;13.33;8.43;;;9.40;99.90;;;;;;5074408;28;20198;-79
2023/12/17 03:11:35;;;;;;;11.87;8.17;;;9.30;99.90;;;;;;5064210;28;20222;-78
2023/12/17 03:14:01;;;;;;;13.07;8.40;;;9.40;62.60;;;;;;5064895;28;20209;-79
2023/12/17 03:16:30;;;;;;;13.17;7.60;;;9.30;12.70;;;;;;5066981;28;20225;-78
2023/12/17 03:18:57;;;;;;;13.57;8.17;;;9.30;1.00;;;;;;5067055;28;20236;-77
2023/12/17 03:21:26;;;;;;;14.23;8.13;;;9.40;1.00;;;;;;5072576;28;20251;-77
2023/12/17 03:23:53;;;;;;;14.20;8.40;;;9.40;1.00;;;;;;5064704;28;20214;-78
2023/12/17 03:26:20;;;;;;;13.27;8.37;;;9.40;1.00;;;;;;5072574;28;20195;-78
2023/12/17 03:28:47;;;;;;;12.13;8.03;;;9.40;1.00;;;;;;5071587;28;20293;-78
2023/12/17 03:31:14;;;;;;;13.77;8.57;;;9.40;1.00;;;;;;5067821;28;20309;-78
2023/12/17 03:33:43;;;;;;;12.27;8.37;;;9.40;1.00;;;;;;5071584;28;20285;-78
2023/12/17 03:36:14;;;;;;;12.90;7.93;;;9.40;1.00;;;;;;5065318;28;20223;-79
2023/12/17 03:38:41;;;;;;;11.83;7.77;;;9.40;1.00;;;;;;5072368;28;20289;-79
2023/12/17 03:41:19;;;;;;;13.03;8.90;;;9.40;1.00;;;;;;5072038;28;20315;-79
2023/12/17 03:43:47;;;;;;;12.23;8.23;;;9.40;1.00;;;;;;5063988;28;20214;-78
2023/12/17 03:46:13;;;;;;;12.40;8.63;;;9.40;1.00;;;;;;5068424;28;20706;-78
2023/12/17 03:48:40;;;;;;;12.77;8.63;;;9.50;1.00;;;;;;5068296;28;20263;-77
2023/12/17 03:51:09;;;;;;;12.90;8.07;;;9.40;1.00;;;;;;5067944;28;20227;-79
2023/12/17 03:53:35;;;;;;;12.50;8.40;;;9.40;99.90;;;;;;5070406;28;20253;-80
2023/12/17 03:56:02;;;;;;;14.07;7.97;;;9.40;99.90;;;;;;5063840;28;20271;-78
2023/12/17 03:58:30;;;;;;;13.03;8.37;;;9.40;99.90;;;;;;5058071;28;20202;-78
2023/12/17 04:00:57;;;;;;;12.20;8.03;;;9.40;99.90;;;;;;5063462;28;20249;-79
2023/12/17 04:03:24;;;;;;;12.67;8.13;;;9.40;99.90;;;;;;5066282;28;20241;-78
2023/12/17 04:05:51;;;;;;;10.60;7.80;;;9.40;99.90;;;;;;5068454;28;20195;-78
2023/12/17 04:08:19;;;;;;;11.63;7.93;;;9.40;99.90;;;;;;5063050;28;20203;-78
2023/12/17 04:10:46;;;;;;;11.33;7.73;;;9.40;99.90;;;;;;5064103;28;20222;-78
2023/12/17 04:13:13;;;;;;;10.50;7.27;;;9.40;99.90;;;;;;5064938;28;20199;-78
2023/12/17 04:15:40;;;;;;;11.23;7.50;;;9.40;99.90;;;;;;5060342;28;20677;-77
2023/12/17 04:18:07;;;;;;;10.97;7.30;;;9.40;99.90;;;;;;5062834;28;20248;-78
2023/12/17 04:20:34;;;;;;;11.40;7.50;;;9.40;99.90;;;;;;5060711;28;20313;-78
2023/12/17 04:23:00;;;;;;;10.93;7.13;;;9.40;99.90;;;;;;5065882;28;20203;-78
2023/12/17 04:25:29;;;;;;;11.23;7.50;;;9.40;99.90;;;;;;5068658;28;20199;-78
2023/12/17 04:27:56;;;;;;;11.13;7.37;;;9.40;99.90;;;;;;5065910;28;20240;-78
2023/12/17 04:30:22;;;;;;;12.13;7.53;;;9.40;99.90;;;;;;5065374;28;20260;-79
2023/12/17 04:32:49;;;;;;;9.63;7.00;;;9.40;96.60;;;;;;5067171;28;20204;-78
2023/12/17 04:35:19;;;;;;;12.40;7.73;;;9.40;49.60;;;;;;5070435;28;20222;-78
2023/12/17 04:37:46;;;;;;;11.90;7.10;;;9.40;65.70;;;;;;5065189;28;20711;-78
2023/12/17 04:40:14;;;;;;;11.33;8.23;;;9.30;39.00;;;;;;5067210;28;20214;-77
2023/12/17 04:42:42;;;;;;;12.13;7.77;;;9.40;36.70;;;;;;5067335;28;20210;-79
2023/12/17 04:45:10;;;;;;;10.87;7.87;;;9.40;58.70;;;;;;5069870;28;20226;-78
2023/12/17 04:47:37;;;;;;;11.77;7.90;;;9.40;81.30;;;;;;5071055;28;20198;-78
2023/12/17 04:50:04;;;;;;;11.30;7.60;;;9.40;58.00;;;;;;5066886;28;20305;-78
2023/12/17 04:52:31;;;;;;;12.97;8.33;;;9.40;99.90;;;;;;5071937;28;20250;-79
2023/12/17 04:54:58;;;;;;;11.37;7.43;;;9.40;67.60;;;;;;5057997;28;20199;-77
2023/12/17 04:57:25;;;;;;;11.63;7.63;;;9.40;40.20;;;;;;5070663;28;20212;-77
2023/12/17 04:59:53;;;;;;;11.43;7.73;;;9.50;47.00;;;;;;5072249;28;20202;-77
2023/12/17 05:02:20;;;;;;;11.30;7.27;;;9.40;1.00;;;;;;5063939;28;20333;-79
2023/12/17 05:04:47;;;;;;;12.77;8.37;;;9.40;1.00;;;;;;5064176;28;20233;-78
2023/12/17 05:07:16;;;;;;;14.37;8.80;;;9.40;1.00;;;;;;5055509;28;20236;-78
2023/12/17 05:09:43;;;;;;;11.43;8.27;;;9.50;1.00;;;;;;5062276;28;20652;-78
2023/12/17 05:12:10;;;;;;;12.73;8.50;;;9.50;1.00;;;;;;5062246;28;20250;-79
2023/12/17 05:14:37;;;;;;;12.63;7.77;;;9.50;1.00;;;;;;5063449;28;20229;-78
2023/12/17 05:17:05;;;;;;;12.43;8.30;;;9.50;1.00;;;;;;5067767;28;20305;-78
2023/12/17 05:19:32;;;;;;;13.33;8.43;;;9.40;1.00;;;;;;5063522;28;20209;-78
2023/12/17 05:21:59;;;;;;;12.37;8.60;;;9.50;1.00;;;;;;5062967;28;20218;-77
2023/12/17 05:24:25;;;;;;;11.77;7.90;;;9.40;1.00;;;;;;5069900;28;20205;-78
2023/12/17 05:26:52;;;;;;;13.47;8.37;;;9.40;1.00;;;;;;5063665;28;20705;-77
2023/12/17 05:29:19;;;;;;;11.73;8.03;;;9.40;1.00;;;;;;5057321;28;20206;-79
2023/12/17 05:31:46;;;;;;;12.40;8.13;;;9.40;1.00;;;;;;5065142;28;20301;-78
2023/12/17 05:34:14;;;;;;;14.27;8.90;;;9.50;1.00;;;;;;5067275;28;20276;-78
2023/12/17 05:36:42;;;;;;;14.07;8.90;;;9.50;1.00;;;;;;5057259;28;20226;-78
2023/12/17 05:39:09;;;;;;;13.00;8.40;;;9.50;1.00;;;;;;5062565;28;20684;-77
2023/12/17 05:41:36;;;;;;;13.30;8.60;;;9.40;1.00;;;;;;5066107;28;20226;-77
2023/12/17 05:44:03;;;;;;;14.23;8.77;;;9.40;1.00;;;;;;5063069;28;20202;-78
2023/12/17 05:46:30;;;;;;;12.47;8.63;;;9.40;1.00;;;;;;5069604;28;20191;-77
2023/12/17 05:48:56;;;;;;;14.40;9.57;;;9.40;1.00;;;;;;5069004;28;20226;-77
2023/12/17 05:51:25;;;;;;;12.83;8.93;;;9.40;1.00;;;;;;5062601;28;20241;-79
2023/12/17 05:53:52;;;;;;;12.53;8.20;;;9.40;1.00;;;;;;5071081;28;20203;-78
2023/12/17 05:56:18;;;;;;;15.03;9.23;;;9.40;1.00;;;;;;5066840;28;20742;-79
2023/12/17 05:58:45;;;;;;;14.00;8.83;;;9.40;1.00;;;;;;5063413;28;20918;-78
2023/12/17 06:01:12;;;;;;;11.47;7.87;;;9.40;1.00;;;;;;5066720;28;20222;-77
2023/12/17 06:03:39;;;;;;;13.60;8.40;;;9.40;1.00;;;;;;5065343;28;20769;-78
2023/12/17 06:06:07;;;;;;;15.33;9.93;;;9.40;1.00;;;;;;5058630;28;20234;-79
2023/12/17 06:08:36;;;;;;;14.93;9.50;;;9.40;1.00;;;;;;5053650;28;20199;-78
2023/12/17 06:11:03;;;;;;;15.97;9.57;;;9.40;1.00;;;;;;5062586;28;20221;-77
2023/12/17 06:13:30;;;;;;;14.37;9.00;;;9.40;1.00;;;;;;5058810;28;20199;-79
2023/12/17 06:15:57;;;;;;;13.63;8.93;;;9.40;1.00;;;;;;5065511;28;20775;-80
2023/12/17 06:18:24;;;;;;;15.13;9.10;;;9.50;1.00;;;;;;5062361;28;20862;-79
2023/12/17 06:20:51;;;;;;;15.57;9.27;;;9.50;1.00;;;;;;5056504;28;20242;-79
2023/12/17 06:23:18;;;;;;;14.73;8.80;;;9.50;1.00;;;;;;5062040;28;20677;-78
2023/12/17 06:25:46;;;;;;;14.77;8.83;;;9.50;1.00;;;;;;5059928;28;20251;-79
2023/12/17 06:28:13;;;;;;;14.03;9.00;;;9.50;1.00;;;;;;5057703;28;20223;-79
2023/12/17 06:30:40;;;;;;;15.30;9.07;;;9.50;1.00;;;;;;5063076;28;20286;-78
2023/12/17 06:33:07;;;;;;;14.23;8.83;;;9.40;1.00;;;;;;5070097;28;20287;-80
2023/12/17 06:35:34;;;;;;;14.03;9.03;;;9.50;1.00;;;;;;5067134;28;20227;-78
2023/12/17 06:38:00;;;;;;;17.30;9.10;;;9.50;1.00;;;;;;5068863;28;20632;-80
2023/12/17 06:40:27;;;;;;;15.33;9.30;;;9.50;1.00;;;;;;5067052;28;20305;-79
2023/12/17 06:42:56;;;;;;;15.00;8.97;;;9.50;1.00;;;;;;5068931;28;20251;-79
2023/12/17 06:45:23;;;;;;;15.57;9.40;;;9.50;1.00;;;;;;5070491;28;20203;-80
2023/12/17 06:47:50;;;;;;;14.90;9.57;;;9.40;1.00;;;;;;5074095;28;20225;-80
2023/12/17 06:50:17;;;;;;;15.40;10.23;;;9.50;1.00;;;;;;5075385;28;20230;-79
2023/12/17 06:52:44;;;;;;;13.53;9.03;;;9.50;1.00;;;;;;5075272;28;20198;-78
2023/12/17 06:55:11;;;;;;;15.93;9.30;;;9.50;1.00;;;;;;5072554;28;20237;-78
2023/12/17 06:57:38;;;;;;;15.03;9.43;;;9.40;1.00;;;;;;5071280;28;20222;-79
2023/12/17 07:00:09;;;;;;;14.93;9.20;;;9.40;1.00;;;;;;5067428;28;20263;-78
2023/12/17 07:02:36;;;;;;;16.23;9.13;;;9.40;1.00;;;;;;5072054;28;20277;-79
2023/12/17 07:05:03;;;;;;;13.17;8.63;;;9.40;1.00;;;;;;5075872;28;20293;-80
2023/12/17 07:07:30;;;;;;;15.33;9.37;;;9.40;1.00;;;;;;5067955;28;20245;-79
2023/12/17 07:09:56;;;;;;;16.60;9.83;;;9.40;1.00;;;;;;5072861;28;20289;-77
2023/12/17 07:12:23;;;;;;;15.30;9.17;;;9.40;1.00;;;;;;5066769;28;20653;-79
2023/12/17 07:14:50;;;;;;;14.37;9.00;;;9.40;1.00;;;;;;5069060;28;20206;-81
2023/12/17 07:17:19;;;;;;;17.07;9.27;;;9.40;1.00;;;;;;5059203;28;20219;-79
2023/12/17 07:19:46;;;;;;;16.20;9.80;;;9.40;1.00;;;;;;5068174;28;20210;-79
2023/12/17 07:22:13;;;;;;;14.33;9.43;;;9.40;1.00;;;;;;5067894;28;20223;-79
2023/12/17 07:24:40;;;;;;;15.00;9.30;;;9.40;1.00;;;;;;5076426;28;20202;-80
2023/12/17 07:27:07;;;;;;;15.63;9.37;;;9.50;1.00;;;;;;5074758;28;20194;-78
2023/12/17 07:29:33;;;;;;;14.83;9.27;;;9.40;1.00;;;;;;5076981;28;20256;-79
2023/12/17 07:32:00;;;;;;;15.83;9.97;;;9.40;1.00;;;;;;5068006;28;20309;-80
2023/12/17 07:34:29;;;;;;;14.30;9.20;;;9.40;1.00;;;;;;5069123;28;20239;-81
2023/12/17 07:36:56;;;;;;;17.17;9.57;;;9.40;1.00;;;;;;5072604;28;20213;-79
2023/12/17 07:39:23;;;;;;;15.53;9.60;;;9.40;1.00;;;;;;5070186;28;20202;-78
2023/12/17 07:41:49;;;;;;;16.63;9.47;;;9.40;1.00;;;;;;5072359;28;20691;-80
2023/12/17 07:44:16;;;;;;;15.27;9.37;;;9.40;1.00;;;;;;5071358;28;20198;-78
2023/12/17 07:46:43;;;;;;;14.43;9.27;;;9.40;1.00;;;;;;5069175;28;20252;-78
2023/12/17 07:49:11;;;;;;;13.73;9.10;;;9.50;1.00;;;;;;5071598;28;20641;-79
2023/12/17 07:51:39;;;;;;;16.97;10.30;;;9.50;1.00;;;;;;5071120;28;20752;-79
2023/12/17 07:54:06;;;;;;;16.13;9.73;;;9.50;1.00;;;;;;5072793;28;20230;-79
2023/12/17 07:56:34;;;;;;;16.27;9.73;;;9.50;1.00;;;;;;5072956;28;20305;-78
2023/12/17 07:59:00;;;;;;;17.17;9.50;;;9.50;1.00;;;;;;5074034;28;20242;-79
2023/12/17 08:01:32;;;;;;;14.70;9.27;;;9.50;1.00;;;;;;5072318;28;20234;-78
2023/12/17 08:03:59;;;;;;;20.13;12.30;;;9.50;1.00;;;;;;5073596;28;20293;-78
2023/12/17 08:06:26;;;;;;;15.83;9.50;;;9.40;1.00;;;;;;5073539;28;20210;-78
2023/12/17 08:08:55;;;;;;;13.47;9.27;;;9.50;1.00;;;;;;5075809;28;20594;-78
2023/12/17 08:11:22;;;;;;;15.07;8.83;;;9.60;1.00;;;;;;5072922;28;20268;-79
2023/12/17 08:13:50;;;;;;;15.23;9.87;;;9.60;1.00;;;;;;5072931;28;20646;-79
2023/12/17 08:16:16;;;;;;;14.80;9.23;;;9.60;1.00;;;;;;5074655;28;20223;-78
2023/12/17 08:18:43;;;;;;;13.77;8.87;;;9.60;1.00;;;;;;5068755;28;20226;-78
2023/12/17 08:21:10;;;;;;;16.67;10.00;;;9.60;1.00;;;;;;5064248;28;20272;-77
2023/12/17 08:23:37;;;;;;;14.93;8.93;;;9.60;1.00;;;;;;5066100;28;20210;-79
2023/12/17 08:26:06;;;;;;;13.53;9.27;;;9.60;1.00;;;;;;5057825;28;20241;-77
2023/12/17 08:28:33;;;;;;;14.67;9.00;;;9.60;1.00;;;;;;5072219;28;20204;-78
2023/12/17 08:31:00;;;;;;;14.97;8.97;;;9.60;1.00;;;;;;5067837;28;20253;-78
2023/12/17 08:33:27;;;;;;;14.63;9.37;;;9.60;1.00;;;;;;5073507;28;20222;-79
2023/12/17 08:35:54;;;;;;;15.90;9.17;;;9.70;99.90;;;;;;5072034;28;20203;-79
2023/12/17 08:38:21;;;;;;;15.20;9.60;;;9.70;99.90;;;;;;5072991;28;20289;-79
2023/12/17 08:40:48;;;;;;;15.90;9.80;;;9.60;99.90;;;;;;5074411;28;20633;-79
2023/12/17 08:43:17;;;;;;;14.70;9.20;;;9.60;99.90;;;;;;5073340;28;20206;-79
2023/12/17 08:45:44;;;;;;;15.17;8.93;;;9.60;99.90;;;;;;5074630;28;20275;-77
2023/12/17 08:48:11;;;;;;;15.03;9.23;;;9.70;99.90;;;;;;5074367;28;20282;-77
2023/12/17 08:50:44;;;;;;;15.13;9.53;;;9.70;99.90;;;;;;5063885;28;20262;-79
2023/12/17 08:53:11;;;;;;;16.17;9.47;;;9.70;99.90;;;;;;5063063;28;20207;-78
2023/12/17 08:55:38;;;;;;;15.20;9.53;;;9.70;99.90;;;;;;5067277;28;20232;-80
2023/12/17 08:58:05;;;;;;;19.20;12.33;;;9.70;99.90;;;;;;5077985;28;20256;-78
2023/12/17 09:00:33;;;;;;;15.20;9.83;;;9.70;99.90;;;;;;5069754;28;20250;-79
2023/12/17 09:03:00;;;;;;;15.80;9.83;;;9.60;99.90;;;;;;5080452;28;20248;-79
2023/12/17 09:05:27;;;;;;;14.77;9.73;;;9.60;99.90;;;;;;5066257;28;20281;-79
2023/12/17 09:07:53;;;;;;;16.70;9.90;;;9.60;99.90;;;;;;5077604;28;20273;-79
2023/12/17 09:10:23;;;;;;;17.80;10.60;;;9.60;99.90;;;;;;5075599;28;20218;-79
2023/12/17 09:12:51;;;;;;;17.30;10.13;;;9.60;99.90;;;;;;5064288;28;20235;-80
2023/12/17 09:15:18;;;;;;;17.40;11.00;;;9.60;99.90;;;;;;5058592;28;20207;-79
2023/12/17 09:17:46;;;;;;;15.00;9.53;;;9.60;99.90;;;;;;5059058;28;20633;-80
2023/12/17 09:20:13;;;;;;;18.60;10.70;;;9.60;99.90;;;;;;5059215;28;20603;-78
2023/12/17 09:22:41;;;;;;;17.30;10.77;;;9.60;99.90;;;;;;5062148;28;20745;-79
2023/12/17 09:25:09;;;;;;;18.50;11.10;;;9.60;99.90;;;;;;5076672;28;20640;-80
2023/12/17 09:27:36;;;;;;;17.63;10.47;;;9.70;99.90;;;;;;5077637;28;20209;-81
2023/12/17 09:30:04;;;;;;;19.33;11.27;;;9.70;99.90;;;;;;5071839;28;20298;-79
2023/12/17 09:32:31;;;;;;;18.57;10.83;;;9.70;99.90;;;;;;5073769;28;20194;-80
2023/12/17 09:34:59;;;;;;;14.63;9.23;;;9.80;99.90;;;;;;5077647;28;20216;-79
2023/12/17 09:37:26;;;;;;;15.07;8.90;;;9.70;99.90;;;;;;5075511;28;20239;-79
2023/12/17 09:39:54;;;;;;;18.50;10.90;;;9.80;99.90;;;;;;5077504;28;20571;-80
2023/12/17 09:42:21;;;;;;;14.67;8.57;;;9.80;98.00;;;;;;5075477;28;20289;-79
2023/12/17 09:44:48;;;;;;;14.90;8.83;;;9.90;1.00;;;;;;5071628;28;20706;-80
2023/12/17 09:47:15;;;;;;;12.33;7.17;;;9.90;1.00;;;;;;5068404;28;20768;-79
2023/12/17 09:49:42;;;;;;;13.27;8.27;;;10.00;1.00;;;;;;5077316;28;20225;-79
2023/12/17 09:52:13;;;;;;;13.80;8.10;;;10.10;1.00;;;;;;5071585;28;20313;-80
2023/12/17 09:54:41;;;;;;;11.43;6.93;;;10.10;1.00;;;;;;5059625;28;20249;-82
2023/12/17 09:57:09;;;;;;;10.43;6.67;;;10.00;1.00;;;;;;5076224;28;20688;-79
2023/12/17 09:59:35;;;;;;;12.00;6.93;;;10.00;1.00;;;;;;5076186;28;20194;-80
2023/12/17 10:02:02;;;;;;;10.30;7.27;;;10.00;1.00;;;;;;5075914;28;20305;-81
2023/12/17 10:04:29;;;;;;;11.93;7.20;;;10.10;1.00;;;;;;5076645;28;20210;-82
2023/12/17 10:06:56;;;;;;;12.80;7.27;;;10.10;1.00;;;;;;5079855;28;20271;-80
2023/12/17 10:09:25;;;;;;;12.43;6.27;;;10.00;1.00;;;;;;5079672;28;20648;-79
2023/12/17 10:11:52;;;;;;;10.77;6.70;;;10.00;1.00;;;;;;5079971;28;20226;-81
2023/12/17 10:14:22;;;;;;;12.77;7.20;;;9.90;1.00;;;;;;5080495;28;20206;-80
2023/12/17 10:16:50;;;;;;;9.33;5.73;;;9.90;1.00;;;;;;5080802;28;20226;-81
2023/12/17 10:19:18;;;;;;;9.37;5.53;;;9.80;1.00;;;;;;5078717;28;20226;-82
2023/12/17 10:21:45;;;;;;;9.07;5.40;;;9.80;1.00;;;;;;5067603;28;20233;-80
2023/12/17 10:24:12;;;;;;;9.47;5.57;;;9.80;1.00;;;;;;5079036;28;20272;-80
2023/12/17 10:26:47;;;;;;;9.33;5.53;;;9.70;1.00;;;;;;5074823;28;20198;-81
2023/12/17 10:29:16;;;;;;;9.83;5.03;;;9.70;1.00;;;;;;5075414;28;20262;-81
2023/12/17 10:31:44;;;;;;;9.67;5.73;;;9.70;1.00;;;;;;5076626;28;20222;-80
2023/12/17 10:34:20;;;;;;;10.50;5.90;;;9.90;1.00;;;;;;5080586;28;20210;-81
2023/12/17 10:36:48;;;;;;;8.20;4.90;;;9.90;1.00;;;;;;5071934;28;20210;-80
2023/12/17 10:39:15;;;;;;;7.13;5.33;;;10.00;1.00;;;;;;5080536;28;20211;-80
2023/12/17 10:41:42;;;;;;;8.80;5.50;;;10.00;1.00;;;;;;5071332;28;20257;-80
2023/12/17 10:44:13;;;;;;;8.53;5.17;;;10.00;1.00;;;;;;5075665;28;20198;-79
2023/12/17 10:46:42;;;;;;;6.97;4.27;;;10.00;1.00;;;;;;5079759;28;20724;-79
2023/12/17 10:49:10;;;;;;;6.10;4.30;;;10.10;1.00;;;;;;5078197;28;20207;-79
2023/12/17 10:51:39;;;;;;;7.53;5.07;;;10.10;1.00;;;;;;5079636;28;20301;-79
2023/12/17 10:54:06;;;;;;;5.80;4.23;;;10.00;1.00;;;;;;5075123;28;20206;-80
2023/12/17 10:56:38;;;;;;;5.30;3.80;;;10.00;1.00;;;;;;5078798;28;20657;-79
2023/12/17 10:59:09;;;;;;;5.67;3.80;;;9.90;1.00;;;;;;5079393;28;20274;-81
2023/12/17 11:01:40;;;;;;;6.43;4.43;;;9.90;1.00;;;;;;5078539;28;20408;-81
2023/12/17 11:04:08;;;;;;;6.47;4.50;;;9.90;1.00;;;;;;5078431;28;20226;-80
2023/12/17 11:06:36;;;;;;;6.53;3.90;;;9.80;1.00;;;;;;5078207;28;20624;-80
2023/12/17 11:09:05;;;;;;;5.97;3.77;;;9.90;1.00;;;;;;5068092;28;20652;-80
2023/12/17 11:11:33;;;;;;;5.73;3.90;;;9.80;1.00;;;;;;5078529;28;20245;-79
2023/12/17 11:14:00;;;;;;;6.40;4.07;;;9.80;1.00;;;;;;5071012;28;20302;-79
2023/12/17 11:16:29;;;;;;;5.90;4.33;;;9.80;1.00;;;;;;5075029;28;20206;-81
2023/12/17 11:19:00;;;;;;;6.43;4.50;;;9.80;1.00;;;;;;5075012;28;20221;-80
2023/12/17 11:21:28;;;;;;;5.67;4.20;;;9.80;1.00;;;;;;5077884;28;20322;-80
2023/12/17 11:23:57;;;;;;;7.10;5.17;;;9.80;1.00;;;;;;5076874;28;20202;-81
2023/12/17 11:26:24;;;;;;;9.47;5.80;;;9.70;1.00;;;;;;5072343;28;20242;-82
2023/12/17 11:28:52;;;;;;;6.73;4.33;;;9.90;99.90;;;;;;5072208;28;20206;-82
2023/12/17 11:31:19;;;;;;;5.47;4.20;;;9.80;99.90;;;;;;5061073;28;20227;-81
2023/12/17 11:33:46;;;;;;;5.80;3.97;;;9.80;99.90;;;;;;5068955;28;20226;-80
2023/12/17 11:36:16;;;;;;;7.80;5.20;;;9.80;99.90;;;;;;5074956;28;20226;-79
2023/12/17 11:38:44;;;;;;;6.77;5.20;;;9.80;99.90;;;;;;5070009;28;20284;-80
2023/12/17 11:41:11;;;;;;;7.93;5.57;;;9.90;99.90;;;;;;5073241;28;20250;-80
2023/12/17 11:43:38;;;;;;;7.43;4.80;;;9.90;99.90;;;;;;5074275;28;20208;-82
2023/12/17 11:46:10;;;;;;;6.20;4.67;;;9.90;99.90;;;;;;5071312;28;20267;-80
2023/12/17 11:48:37;;;;;;;5.53;4.57;;;9.90;99.90;;;;;;5072950;28;20575;-80
2023/12/17 11:51:04;;;;;;;4.83;3.50;;;10.00;99.90;;;;;;5071661;28;20318;-81
2023/12/17 11:53:32;;;;;;;8.23;3.90;;;10.00;99.90;;;;;;5069123;28;20241;-79
2023/12/17 11:56:00;;;;;;;5.13;4.10;;;10.10;99.90;;;;;;5071700;28;20297;-80
2023/12/17 11:58:29;;;;;;;5.00;3.80;;;10.10;99.90;;;;;;5075691;28;20222;-81
2023/12/17 12:01:03;;;;;;;6.87;3.80;;;10.10;99.90;;;;;;5070798;28;20281;-80
2023/12/17 12:03:31;;;;;;;5.67;4.07;;;10.30;99.90;;;;;;5072975;28;20717;-80
2023/12/17 12:05:59;;;;;;;4.80;3.80;;;10.50;99.90;;;;;;5073192;28;20206;-80
2023/12/17 12:08:27;;;;;;;4.13;3.50;;;10.30;99.90;;;;;;5070619;28;20195;-80
2023/12/17 12:10:55;;;;;;;4.13;3.70;;;10.40;99.90;;;;;;5070944;28;20230;-79
2023/12/17 12:13:22;;;;;;;4.37;3.67;;;10.40;99.90;;;;;;5073573;28;20306;-80
2023/12/17 12:15:49;;;;;;;4.57;3.57;;;10.30;99.90;;;;;;5072213;28;20297;-80
2023/12/17 12:18:22;;;;;;;3.40;3.07;;;10.20;99.90;;;;;;5069994;28;20255;-80
2023/12/17 12:20:50;;;;;;;4.00;3.60;;;10.20;99.90;;;;;;5067564;28;20226;-80
2023/12/17 12:23:17;;;;;;;5.13;3.63;;;10.20;99.90;;;;;;5074391;28;20206;-80
2023/12/17 12:25:45;;;;;;;4.30;3.10;;;10.20;99.90;;;;;;5065655;28;20211;-79
2023/12/17 12:28:18;;;;;;;3.63;3.30;;;10.20;99.90;;;;;;5071226;28;20207;-79
2023/12/17 12:30:45;;;;;;;4.23;3.27;;;10.20;99.90;;;;;;5059123;28;20664;-78
2023/12/17 12:33:13;;;;;;;4.13;3.27;;;10.30;99.90;;;;;;5068750;28;20631;-80
2023/12/17 12:35:40;;;;;;;4.33;3.67;;;10.20;99.90;;;;;;5070135;28;20274;-78
2023/12/17 12:38:21;;;;;;;4.10;3.20;;;10.40;99.90;;;;;;5072537;28;20309;-79
2023/12/17 12:40:48;;;;;;;4.83;3.43;;;10.50;99.90;;;;;;5071822;28;20746;-79
2023/12/17 12:43:17;;;;;;;4.33;3.33;;;10.80;91.10;;;;;;5069984;28;20226;-79
2023/12/17 12:45:45;;;;;;;3.20;2.90;;;11.20;16.50;;;;;;5071895;28;20238;-78
2023/12/17 12:48:19;;;;;;;5.20;3.97;;;10.80;1.00;;;;;;5074412;28;20289;-79
2023/12/17 12:50:46;;;;;;;5.13;4.03;;;10.60;1.00;;;;;;5063747;28;20230;-81
2023/12/17 12:53:16;;;;;;;4.00;3.33;;;10.40;1.00;;;;;;5074034;28;20264;-81